Time;durP1;ratioP1;P1;durP2;ratioP2;P2;SDS_P1;SDS_P2;PMS_P1;PMS_P2;Temp;Humidity;BMP_temperature;BMP_pressure;BME280_temperature;BME280_humidity;BME280_pressure;Samples;Min_cycle;Max_cycle;Signal;HPM_P1;HPM_P2
2023/06/26 00:06:25;;;;;;;2.78;1.73;;;;;;;;;;20850793;28;20327;-73
2023/06/26 00:16:27;;;;;;;2.95;2.03;;;;;;;;;;20847593;28;20781;-72
2023/06/26 00:26:30;;;;;;;2.70;1.90;;;;;;;;;;20849880;28;20338;-72
2023/06/26 00:36:32;;;;;;;4.32;1.65;;;;;;;;;;20856750;28;20290;-72
2023/06/26 00:46:35;;;;;;;2.78;2.03;;;;;;;;;;20880543;28;20215;-72
2023/06/26 00:56:37;;;;;;;4.20;1.67;;;;;;;;;;20863631;28;20211;-72
2023/06/26 01:06:40;;;;;;;2.75;2.10;;;;;;;;;;20863056;28;20241;-72
2023/06/26 01:16:49;;;;;;;3.25;2.45;;;;;;;;;;20862536;28;20684;-72
2023/06/26 01:26:52;;;;;;;3.05;1.90;;;;;;;;;;20862401;28;20573;-72
2023/06/26 01:36:54;;;;;;;4.53;1.98;;;;;;;;;;20875065;23;20289;-68
2023/06/26 01:47:04;;;;;;;2.17;1.65;;;25.30;90.50;;;;;;20892590;28;20232;-68
2023/06/26 01:57:06;;;;;;;2.97;2.03;;;25.30;94.80;;;;;;20875682;28;20229;-68
2023/06/26 02:07:09;;;;;;;3.55;1.90;;;;;;;;;;20851892;28;20283;-68
2023/06/26 02:17:11;;;;;;;2.42;1.80;;;;;;;;;;20857169;28;20543;-68
2023/06/26 02:27:13;;;;;;;3.22;2.00;;;;;;;;;;20889456;28;20287;-68
2023/06/26 02:37:16;;;;;;;2.63;1.70;;;;;;;;;;20854770;28;20608;-68
2023/06/26 02:47:17;;;;;;;2.13;1.40;;;;;;;;;;20870441;28;20573;-68
2023/06/26 02:57:20;;;;;;;2.83;1.70;;;;;;;;;;20868788;28;20224;-67
2023/06/26 03:07:25;;;;;;;2.15;1.58;;;;;;;;;;20869615;28;20650;-68
2023/06/26 03:17:27;;;;;;;2.45;1.63;;;;;;;;;;20852253;28;20279;-68
2023/06/26 03:27:35;;;;;;;2.97;1.90;;;;;;;;;;20868870;28;20252;-68
2023/06/26 03:37:36;;;;;;;2.72;1.80;;;;;;;;;;20851066;28;20200;-68
2023/06/26 03:47:38;;;;;;;2.22;1.60;;;;;;;;;;20867051;28;20228;-68
2023/06/26 03:57:41;;;;;;;3.13;1.92;;;;;;;;;;20883163;28;20195;-67
2023/06/26 04:07:45;;;;;;;2.28;1.60;;;;;;;;;;20885344;28;20714;-68
2023/06/26 04:17:47;;;;;;;3.35;1.80;;;;;;;;;;20887238;28;20204;-68
2023/06/26 04:27:49;;;;;;;2.30;1.70;;;;;;;;;;20882792;28;20223;-68
2023/06/26 04:37:51;;;;;;;3.67;1.80;;;;;;;;;;20891090;28;20202;-67
2023/06/26 04:47:53;;;;;;;2.55;2.00;;;;;;;;;;20896853;28;20685;-68
2023/06/26 04:57:55;;;;;;;3.15;1.65;;;;;;;;;;20913260;28;20281;-68
2023/06/26 05:07:57;;;;;;;2.50;1.70;;;;;;;;;;20911851;28;20221;-68
2023/06/26 05:17:58;;;;;;;2.33;1.60;;;;;;;;;;20911463;28;20283;-68
2023/06/26 05:28:01;;;;;;;2.30;1.52;;;;;;;;;;20860104;28;20227;-68
2023/06/26 05:38:03;;;;;;;2.72;1.80;;;;;;;;;;20887478;28;20211;-68
2023/06/26 05:48:05;;;;;;;2.42;1.63;;;;;;;;;;20875904;28;20301;-68
2023/06/26 05:58:07;;;;;;;2.03;1.52;;;;;;;;;;20891291;28;20284;-68
2023/06/26 06:08:09;;;;;;;3.42;1.73;;;;;;;;;;20890207;28;20216;-68
2023/06/26 06:18:11;;;;;;;3.92;1.70;;;;;;;;;;20857279;28;20220;-68
2023/06/26 06:28:16;;;;;;;2.33;1.60;;;;;;;;;;20856058;28;20231;-68
2023/06/26 06:38:17;;;;;;;2.22;1.55;;;;;;;;;;20885146;28;20249;-68
2023/06/26 06:48:19;;;;;;;2.28;1.60;;;;;;;;;;20904420;28;20231;-68
2023/06/26 06:58:22;;;;;;;2.67;1.58;;;;;;;;;;20887269;28;20216;-69
2023/06/26 07:08:24;;;;;;;2.88;1.70;;;;;;;;;;20886837;28;20587;-69
2023/06/26 07:18:26;;;;;;;2.00;1.35;;;;;;;;;;20853484;28;20224;-68
2023/06/26 07:28:28;;;;;;;3.45;1.58;;;;;;;;;;20852409;28;20240;-69
2023/06/26 07:38:30;;;;;;;1.48;1.30;;;;;;;;;;20856491;23;20284;-77
2023/06/26 07:48:32;;;;;;;2.15;1.40;;;;;;;;;;20833144;28;20279;-78
2023/06/26 07:58:33;;;;;;;2.35;1.55;;;;;;;;;;20884426;28;20221;-78
2023/06/26 08:08:35;;;;;;;2.10;1.27;;;;;;;;;;20884812;28;20624;-78
2023/06/26 08:18:36;;;;;;;2.38;1.20;;;;;;;;;;20901417;28;20220;-78
2023/06/26 08:28:38;;;;;;;2.75;1.38;;;;;;;;;;20882636;28;20262;-76
2023/06/26 08:38:40;;;;;;;5.53;1.50;;;;;;;;;;20868246;28;20230;-76
2023/06/26 08:48:48;;;;;;;2.88;1.40;;;28.80;89.20;;;;;;20813256;28;20260;-76
2023/06/26 08:58:49;;;;;;;1.98;1.30;;;28.50;88.40;;;;;;20805977;28;20244;-74
2023/06/26 09:08:51;;;;;;;3.45;1.20;;;;;;;;;;20831098;28;20218;-74
2023/06/26 09:18:53;;;;;;;2.45;1.30;;;29.10;92.90;;;;;;20830397;28;20248;-74
2023/06/26 09:28:55;;;;;;;2.35;1.50;;;;;;;;;;20830019;28;20214;-75
2023/06/26 09:38:57;;;;;;;4.78;1.88;;;;;;;;;;20855419;28;20706;-75
2023/06/26 09:49:10;;;;;;;1.90;1.48;;;26.30;92.00;;;;;;20827784;28;20276;-75
2023/06/26 09:59:12;;;;;;;2.35;1.67;;;;;;;;;;20826708;28;20225;-74
2023/06/26 10:09:16;;;;;;;2.17;1.30;;;29.00;95.60;;;;;;20824197;28;20248;-74
2023/06/26 10:19:26;;;;;;;2.33;1.50;;;;;;;;;;20824535;28;20214;-75
2023/06/26 10:29:28;;;;;;;2.03;1.40;;;29.30;95.20;;;;;;20826907;28;20656;-74
2023/06/26 10:39:49;;;;;;;1.90;1.35;;;;;;;;;;20836961;28;20222;-76
2023/06/26 10:49:51;;;;;;;2.20;1.30;;;;;;;;;;20821401;28;20655;-76
2023/06/26 11:00:14;;;;;;;1.90;1.30;;;30.20;91.70;;;;;;20820621;28;20722;-76
2023/06/26 11:10:16;;;;;;;2.30;1.40;;;;;;;;;;20821504;28;20210;-76
2023/06/26 11:20:18;;;;;;;2.63;1.65;;;;;;;;;;20801426;28;20229;-76
2023/06/26 11:30:24;;;;;;;3.42;1.30;;;;;;;;;;20830259;28;20213;-76
2023/06/26 11:40:31;;;;;;;3.50;1.15;;;;;;;;;;20831771;28;20691;-77
2023/06/26 11:50:32;;;;;;;2.25;1.30;;;;;;;;;;20819771;28;20637;-76
2023/06/26 12:00:34;;;;;;;2.20;1.17;;;;;;;;;;20819017;28;20222;-76
2023/06/26 12:10:36;;;;;;;2.15;1.23;;;;;;;;;;20818435;28;20203;-77
2023/06/26 12:20:40;;;;;;;2.38;1.20;;;;;;;;;;20801121;28;20296;-77
2023/06/26 12:30:46;;;;;;;6.68;1.60;;;;;;;;;;20836135;28;20218;-76
2023/06/26 12:40:48;;;;;;;3.17;1.08;;;;;;;;;;20838894;28;20719;-77
2023/06/26 12:50:50;;;;;;;6.90;2.20;;;;;;;;;;20878686;28;20240;-76
2023/06/26 13:00:53;;;;;;;2.53;1.70;;;;;;;;;;20896633;28;20702;-79
2023/06/26 13:10:55;;;;;;;4.50;2.00;;;;;;;;;;20880562;28;20280;-77
2023/06/26 13:20:57;;;;;;;2.40;1.63;;;;;;;;;;20879568;28;20264;-77
2023/06/26 13:30:59;;;;;;;3.53;1.60;;;;;;;;;;20911178;28;20210;-76
2023/06/26 13:41:01;;;;;;;1.83;0.90;;;;;;;;;;20947190;23;20207;-70
2023/06/26 13:51:03;;;;;;;1.23;0.70;;;;;;;;;;20773163;28;20304;-69
2023/06/26 14:01:04;;;;;;;3.13;0.98;;;;;;;;;;20822607;28;20226;-69
2023/06/26 14:11:06;;;;;;;1.23;0.63;;;;;;;;;;20859576;28;20210;-69
2023/06/26 14:21:09;;;;;;;2.78;0.70;;;;;;;;;;20856785;28;20226;-69
2023/06/26 14:31:11;;;;;;;1.60;0.70;;;;;;;;;;20852872;28;20502;-70
2023/06/26 14:41:13;;;;;;;1.50;0.60;;;;;;;;;;20788223;28;20219;-69
2023/06/26 14:51:15;;;;;;;1.35;0.40;;;;;;;;;;20774159;28;20210;-69
2023/06/26 15:01:16;;;;;;;1.40;0.60;;;;;;;;;;20772859;28;20657;-69
2023/06/26 15:11:19;;;;;;;2.03;0.80;;;;;;;;;;20772505;28;20218;-70
2023/06/26 15:21:21;;;;;;;3.92;1.02;;;;;;;;;;20787467;28;20276;-73
2023/06/26 15:31:22;;;;;;;1.00;0.40;;;;;;;;;;20784724;28;20296;-71
2023/06/26 15:41:24;;;;;;;1.02;0.50;;;;;;;;;;20817584;28;20230;-70
2023/06/26 15:51:26;;;;;;;2.55;0.60;;;;;;;;;;20769907;28;20219;-70
2023/06/26 16:01:28;;;;;;;1.98;0.70;;;;;;;;;;20769488;28;20312;-70
2023/06/26 16:11:29;;;;;;;1.60;0.45;;;;;;;;;;20800421;28;20269;-70
2023/06/26 16:21:31;;;;;;;1.23;0.50;;;;;;;;;;20785696;28;20239;-70
2023/06/26 16:31:33;;;;;;;3.47;0.60;;;;;;;;;;20798275;28;20630;-70
2023/06/26 16:41:35;;;;;;;3.10;0.60;;;;;;;;;;20798439;28;20218;-70
2023/06/26 16:51:37;;;;;;;1.10;0.40;;;;;;;;;;20783847;28;20215;-70
2023/06/26 17:01:39;;;;;;;2.72;0.77;;;;;;;;;;20799006;28;20296;-70
2023/06/26 17:11:41;;;;;;;1.27;0.50;;;;;;;;;;20782256;28;20265;-72
2023/06/26 17:21:47;;;;;;;1.52;0.40;;;;;;;;;;20796093;28;20455;-72
2023/06/26 17:31:49;;;;;;;0.75;0.30;;;;;;;;;;20826563;28;20280;-70
2023/06/26 17:41:51;;;;;;;1.42;0.40;;;;;;;;;;20810747;28;20756;-71
2023/06/26 17:51:53;;;;;;;1.02;0.40;;;;;;;;;;20779820;28;20227;-72
2023/06/26 18:01:55;;;;;;;1.00;0.50;;;;;;;;;;20794971;28;20245;-70
2023/06/26 18:11:57;;;;;;;1.30;0.60;;;;;;;;;;20794042;28;20226;-70
2023/06/26 18:21:59;;;;;;;0.75;0.38;;;;;;;;;;20792551;28;20234;-70
2023/06/26 18:32:00;;;;;;;2.20;0.73;;;;;;;;;;20805243;28;20680;-71
2023/06/26 18:42:03;;;;;;;2.35;0.40;;;;;;;;;;20789233;28;20222;-70
2023/06/26 18:52:05;;;;;;;0.82;0.40;;;;;;;;;;20806466;28;20628;-70
2023/06/26 19:02:07;;;;;;;1.02;0.45;;;;;;;;;;20790158;28;20231;-70
2023/06/26 19:12:10;;;;;;;0.77;0.47;;;;;;;;;;20789589;28;20223;-70
2023/06/26 19:22:12;;;;;;;1.15;0.47;;;;;;;;;;20805052;28;20226;-71
2023/06/26 19:32:13;;;;;;;0.77;0.40;;;;;;;;;;20801538;28;20218;-70
2023/06/26 19:42:15;;;;;;;0.60;0.50;;;;;;;;;;20832444;28;20222;-70
2023/06/26 19:52:17;;;;;;;1.08;0.50;;;;;;;;;;20796404;23;20238;-72
2023/06/26 20:02:19;;;;;;;0.70;0.50;;;;;;;;;;20886517;28;20243;-72
2023/06/26 20:12:21;;;;;;;1.80;0.57;;;;;;;;;;20882339;28;20213;-72
2023/06/26 20:22:23;;;;;;;1.00;0.50;;;;;;;;;;20899236;28;20286;-72
2023/06/26 20:32:25;;;;;;;3.38;0.40;;;;;;;;;;20884691;28;20237;-71
2023/06/26 20:42:27;;;;;;;0.73;0.40;;;;;;;;;;20830963;28;20580;-72
2023/06/26 20:52:30;;;;;;;1.20;0.47;;;;;;;;;;20821107;28;20272;-71
2023/06/26 21:02:33;;;;;;;0.75;0.38;;;;;;;;;;20829152;28;20276;-72
2023/06/26 21:12:35;;;;;;;0.85;0.40;;;;;;;;;;20828306;28;20229;-72
2023/06/26 21:22:37;;;;;;;0.80;0.30;;;;;;;;;;20828551;28;20768;-71
2023/06/26 21:32:39;;;;;;;0.95;0.30;;;;;;;;;;20848568;28;20552;-71
2023/06/26 21:42:40;;;;;;;1.33;0.50;;;;;;;;;;20841890;28;20225;-72
2023/06/26 21:52:42;;;;;;;3.40;0.75;;;;;;;;;;20824470;28;20275;-72
2023/06/26 22:02:44;;;;;;;1.25;0.50;;;;;;;;;;20807090;28;20264;-71
2023/06/26 22:12:46;;;;;;;1.73;0.60;;;;;;;;;;20823964;28;20209;-71
2023/06/26 22:22:48;;;;;;;1.63;0.60;;;;;;;;;;20824059;28;20225;-72
2023/06/26 22:32:50;;;;;;;1.15;0.30;;;;;;;;;;20834882;28;20230;-72
2023/06/26 22:42:52;;;;;;;1.90;0.65;;;;;;;;;;20838110;28;20243;-72
2023/06/26 22:52:54;;;;;;;0.82;0.47;;;;;;;;;;20821541;28;20543;-71
2023/06/26 23:02:55;;;;;;;1.00;0.47;;;;;;;;;;20824866;28;20237;-71
2023/06/26 23:12:58;;;;;;;0.75;0.40;;;;;;;;;;20818009;28;20572;-72
2023/06/26 23:23:00;;;;;;;1.23;0.50;;;;;;;;;;20819516;28;20216;-71
2023/06/26 23:33:05;;;;;;;0.52;0.30;;;;;;;;;;20831267;28;20750;-71
2023/06/26 23:43:07;;;;;;;0.55;0.35;;;;;;;;;;20834904;28;20252;-71
2023/06/26 23:53:09;;;;;;;1.15;0.60;;;;;;;;;;20821024;28;20230;-71
